KSDY/SDY METAR and TAF weather

Enter ICAO airport designator
Station Type Date Time Source
KSDY METAR 2019/06/19 05:56 UTC NOAA

KSDY 190556Z AUTO 24007KT 10SM FEW095 18/12 A2984 RMK AO2 TSB02E29 SLP499 T01780122 10261 20178 51004


Station Type Date Time Source
KSDY Decoded METAR 2019/06/19 05:56 UTC NOAA

Sidney-Richland, MT, United States (KSDY) 47-42N 104-12W
Jun 19, 2019 - 01:56 AM EDT / 2019.06.19 0556 UTC
Wind: from the WSW (240 degrees) at 8 MPH (7 KT):0
Visibility: 10 mile(s):0
Sky conditions: mostly clear
Temperature: 64.0 F (17.8 C)
Dew Point: 54.0 F (12.2 C)
Relative Humidity: 69%
Pressure (altimeter): 29.84 in. Hg (1010 hPa)
Pressure tendency: 0.01 inches (0.4 hPa) higher than three hours ago
ob: KSDY 190556Z AUTO 24007KT 10SM FEW095 18/12 A2984 RMK AO2 TSB02E29 SLP499 T01780122 10261 20178 51004
cycle: 6

Station Type Date Time Source
KSDY TAF 2019/06/19 06:24 UTC NOAA

TAF KSDY 190521Z 1906/2006 VRB04KT P6SM VCSH BKN070
FM190900 VRB04KT P6SM BKN090
FM192300 12012G20KT P6SM BKN080
FM200400 14007KT P6SM OVC060

Example: see airport list